sensor_id;sensor_type;location;lat;lon;timestamp;pressure;altitude;pressure_sealevel;temperature;humidity
63281;BME280;49406;51.044;3.766;2023-11-18T00:00:10;102440.00;;;5.68;100.00
63281;BME280;49406;51.044;3.766;2023-11-18T00:02:45;102439.33;;;5.65;100.00
63281;BME280;49406;51.044;3.766;2023-11-18T00:05:20;102433.84;;;5.63;100.00
63281;BME280;49406;51.044;3.766;2023-11-18T00:07:57;102424.38;;;5.61;100.00
63281;BME280;49406;51.044;3.766;2023-11-18T00:10:31;102418.51;;;5.65;100.00
63281;BME280;49406;51.044;3.766;2023-11-18T00:13:06;102416.98;;;5.72;100.00
63281;BME280;49406;51.044;3.766;2023-11-18T00:15:42;102415.40;;;5.75;100.00
63281;BME280;49406;51.044;3.766;2023-11-18T00:18:19;102411.95;;;5.75;100.00
63281;BME280;49406;51.044;3.766;2023-11-18T00:20:53;102410.57;;;5.79;100.00
63281;BME280;49406;51.044;3.766;2023-11-18T00:23:30;102408.44;;;5.82;100.00
63281;BME280;49406;51.044;3.766;2023-11-18T00:26:05;102413.39;;;5.84;100.00
63281;BME280;49406;51.044;3.766;2023-11-18T00:28:41;102413.23;;;5.87;100.00
63281;BME280;49406;51.044;3.766;2023-11-18T00:31:16;102418.45;;;5.90;100.00
63281;BME280;49406;51.044;3.766;2023-11-18T00:33:51;102412.35;;;5.89;100.00
63281;BME280;49406;51.044;3.766;2023-11-18T00:36:27;102409.75;;;5.87;100.00
63281;BME280;49406;51.044;3.766;2023-11-18T00:39:04;102413.98;;;5.85;100.00
63281;BME280;49406;51.044;3.766;2023-11-18T00:41:40;102415.20;;;5.91;100.00
63281;BME280;49406;51.044;3.766;2023-11-18T00:44:15;102410.15;;;5.94;100.00
63281;BME280;49406;51.044;3.766;2023-11-18T00:46:50;102413.98;;;5.94;100.00
63281;BME280;49406;51.044;3.766;2023-11-18T00:49:25;102418.50;;;5.94;100.00
63281;BME280;49406;51.044;3.766;2023-11-18T00:52:00;102408.50;;;5.92;100.00
63281;BME280;49406;51.044;3.766;2023-11-18T00:54:35;102413.45;;;5.97;100.00
63281;BME280;49406;51.044;3.766;2023-11-18T00:57:10;102407.73;;;5.97;100.00
63281;BME280;49406;51.044;3.766;2023-11-18T00:59:45;102410.23;;;5.92;100.00
63281;BME280;49406;51.044;3.766;2023-11-18T01:02:19;102411.96;;;5.86;100.00
63281;BME280;49406;51.044;3.766;2023-11-18T01:04:54;102413.02;;;5.83;100.00
63281;BME280;49406;51.044;3.766;2023-11-18T01:07:29;102419.90;;;5.82;100.00
63281;BME280;49406;51.044;3.766;2023-11-18T01:10:03;102416.19;;;5.81;100.00
63281;BME280;49406;51.044;3.766;2023-11-18T01:12:39;102411.84;;;5.90;100.00
63281;BME280;49406;51.044;3.766;2023-11-18T01:15:14;102406.08;;;5.92;100.00
63281;BME280;49406;51.044;3.766;2023-11-18T01:17:49;102401.77;;;5.92;100.00
63281;BME280;49406;51.044;3.766;2023-11-18T01:20:23;102400.57;;;5.93;100.00
63281;BME280;49406;51.044;3.766;2023-11-18T01:22:58;102392.86;;;5.95;100.00
63281;BME280;49406;51.044;3.766;2023-11-18T01:25:33;102390.16;;;5.96;100.00
63281;BME280;49406;51.044;3.766;2023-11-18T01:28:08;102392.80;;;5.97;100.00
63281;BME280;49406;51.044;3.766;2023-11-18T01:30:43;102392.30;;;5.98;100.00
63281;BME280;49406;51.044;3.766;2023-11-18T01:33:18;102392.04;;;5.99;100.00
63281;BME280;49406;51.044;3.766;2023-11-18T01:35:53;102393.86;;;5.98;100.00
63281;BME280;49406;51.044;3.766;2023-11-18T01:38:28;102400.98;;;5.98;100.00
63281;BME280;49406;51.044;3.766;2023-11-18T01:41:04;102403.14;;;5.96;100.00
63281;BME280;49406;51.044;3.766;2023-11-18T01:43:40;102409.71;;;5.95;100.00
63281;BME280;49406;51.044;3.766;2023-11-18T01:46:15;102408.89;;;5.96;100.00
63281;BME280;49406;51.044;3.766;2023-11-18T01:48:51;102413.34;;;5.95;100.00
63281;BME280;49406;51.044;3.766;2023-11-18T01:51:26;102409.89;;;6.05;100.00
63281;BME280;49406;51.044;3.766;2023-11-18T01:54:02;102407.05;;;6.07;100.00
63281;BME280;49406;51.044;3.766;2023-11-18T01:56:39;102408.94;;;6.07;100.00
63281;BME280;49406;51.044;3.766;2023-11-18T01:59:13;102406.61;;;6.09;100.00
63281;BME280;49406;51.044;3.766;2023-11-18T02:01:52;102402.37;;;6.08;100.00
63281;BME280;49406;51.044;3.766;2023-11-18T02:04:32;102399.64;;;6.12;100.00
63281;BME280;49406;51.044;3.766;2023-11-18T02:07:10;102391.19;;;6.13;100.00
63281;BME280;49406;51.044;3.766;2023-11-18T02:09:48;102386.36;;;6.14;100.00
63281;BME280;49406;51.044;3.766;2023-11-18T02:12:29;102380.18;;;6.15;100.00
63281;BME280;49406;51.044;3.766;2023-11-18T02:15:09;102383.60;;;6.14;100.00
63281;BME280;49406;51.044;3.766;2023-11-18T02:17:47;102385.81;;;6.13;100.00
63281;BME280;49406;51.044;3.766;2023-11-18T02:20:23;102385.94;;;6.12;100.00
63281;BME280;49406;51.044;3.766;2023-11-18T02:22:58;102383.91;;;6.10;100.00
63281;BME280;49406;51.044;3.766;2023-11-18T02:28:11;102385.56;;;6.25;100.00
63281;BME280;49406;51.044;3.766;2023-11-18T02:30:46;102386.39;;;6.28;100.00
63281;BME280;49406;51.044;3.766;2023-11-18T02:33:27;102383.36;;;6.30;100.00
63281;BME280;49406;51.044;3.766;2023-11-18T02:36:12;102374.69;;;6.30;100.00
63281;BME280;49406;51.044;3.766;2023-11-18T02:38:51;102359.42;;;6.23;100.00
63281;BME280;49406;51.044;3.766;2023-11-18T02:41:28;102358.35;;;6.26;100.00
63281;BME280;49406;51.044;3.766;2023-11-18T02:44:05;102346.45;;;6.28;100.00
63281;BME280;49406;51.044;3.766;2023-11-18T02:46:43;102341.88;;;6.27;100.00
63281;BME280;49406;51.044;3.766;2023-11-18T02:49:18;102339.05;;;6.26;100.00
63281;BME280;49406;51.044;3.766;2023-11-18T02:51:53;102330.10;;;6.21;100.00
63281;BME280;49406;51.044;3.766;2023-11-18T02:54:28;102321.34;;;6.26;100.00
63281;BME280;49406;51.044;3.766;2023-11-18T02:57:03;102319.93;;;6.29;100.00
63281;BME280;49406;51.044;3.766;2023-11-18T02:59:37;102316.66;;;6.29;100.00
63281;BME280;49406;51.044;3.766;2023-11-18T03:02:12;102311.80;;;6.30;100.00
63281;BME280;49406;51.044;3.766;2023-11-18T03:04:48;102307.62;;;6.29;100.00
63281;BME280;49406;51.044;3.766;2023-11-18T03:07:23;102306.92;;;6.29;100.00
63281;BME280;49406;51.044;3.766;2023-11-18T03:09:57;102312.86;;;6.34;100.00
63281;BME280;49406;51.044;3.766;2023-11-18T03:12:33;102309.30;;;6.32;100.00
63281;BME280;49406;51.044;3.766;2023-11-18T03:15:09;102311.98;;;6.30;100.00
63281;BME280;49406;51.044;3.766;2023-11-18T03:17:46;102306.63;;;6.27;100.00
63281;BME280;49406;51.044;3.766;2023-11-18T03:20:24;102309.62;;;6.39;100.00
63281;BME280;49406;51.044;3.766;2023-11-18T03:23:01;102309.15;;;6.43;100.00
63281;BME280;49406;51.044;3.766;2023-11-18T03:25:36;102304.70;;;6.45;100.00
63281;BME280;49406;51.044;3.766;2023-11-18T03:28:11;102310.77;;;6.48;100.00
63281;BME280;49406;51.044;3.766;2023-11-18T03:30:47;102302.75;;;6.48;100.00
63281;BME280;49406;51.044;3.766;2023-11-18T03:33:22;102307.66;;;6.52;100.00
63281;BME280;49406;51.044;3.766;2023-11-18T03:35:57;102297.90;;;6.48;100.00
63281;BME280;49406;51.044;3.766;2023-11-18T03:38:31;102303.05;;;6.51;100.00
63281;BME280;49406;51.044;3.766;2023-11-18T03:41:07;102301.80;;;6.50;100.00
63281;BME280;49406;51.044;3.766;2023-11-18T03:43:42;102296.70;;;6.55;100.00
63281;BME280;49406;51.044;3.766;2023-11-18T03:46:16;102294.22;;;6.62;100.00
63281;BME280;49406;51.044;3.766;2023-11-18T03:48:51;102292.38;;;6.63;100.00
63281;BME280;49406;51.044;3.766;2023-11-18T03:51:25;102290.45;;;6.63;100.00
63281;BME280;49406;51.044;3.766;2023-11-18T03:54:00;102282.67;;;6.64;100.00
63281;BME280;49406;51.044;3.766;2023-11-18T03:56:35;102273.86;;;6.65;100.00
63281;BME280;49406;51.044;3.766;2023-11-18T03:59:11;102269.67;;;6.64;100.00
63281;BME280;49406;51.044;3.766;2023-11-18T04:01:45;102267.96;;;6.61;100.00
63281;BME280;49406;51.044;3.766;2023-11-18T04:04:22;102262.64;;;6.59;100.00
63281;BME280;49406;51.044;3.766;2023-11-18T04:06:56;102251.64;;;6.61;100.00
63281;BME280;49406;51.044;3.766;2023-11-18T04:09:34;102246.59;;;6.69;100.00
63281;BME280;49406;51.044;3.766;2023-11-18T04:12:09;102237.86;;;6.72;100.00
63281;BME280;49406;51.044;3.766;2023-11-18T04:14:44;102233.95;;;6.73;100.00
63281;BME280;49406;51.044;3.766;2023-11-18T04:17:18;102227.32;;;6.76;100.00
63281;BME280;49406;51.044;3.766;2023-11-18T04:19:53;102222.40;;;6.79;100.00
63281;BME280;49406;51.044;3.766;2023-11-18T04:22:29;102221.11;;;6.81;100.00
63281;BME280;49406;51.044;3.766;2023-11-18T04:25:04;102218.05;;;6.79;100.00
63281;BME280;49406;51.044;3.766;2023-11-18T04:27:39;102203.31;;;6.76;100.00
63281;BME280;49406;51.044;3.766;2023-11-18T04:30:15;102210.45;;;6.80;100.00
63281;BME280;49406;51.044;3.766;2023-11-18T04:32:50;102207.20;;;6.89;100.00
63281;BME280;49406;51.044;3.766;2023-11-18T04:35:26;102204.95;;;6.93;100.00
63281;BME280;49406;51.044;3.766;2023-11-18T04:38:01;102209.55;;;6.99;100.00
63281;BME280;49406;51.044;3.766;2023-11-18T04:40:35;102202.09;;;7.04;100.00
63281;BME280;49406;51.044;3.766;2023-11-18T04:43:12;102203.00;;;7.08;100.00
63281;BME280;49406;51.044;3.766;2023-11-18T04:45:47;102201.13;;;7.13;100.00
63281;BME280;49406;51.044;3.766;2023-11-18T04:48:22;102198.67;;;7.17;100.00
63281;BME280;49406;51.044;3.766;2023-11-18T04:50:56;102190.98;;;7.16;100.00
63281;BME280;49406;51.044;3.766;2023-11-18T04:53:29;102182.00;;;7.13;100.00
63281;BME280;49406;51.044;3.766;2023-11-18T04:56:05;102182.55;;;7.22;100.00
63281;BME280;49406;51.044;3.766;2023-11-18T04:58:41;102177.05;;;7.20;100.00
63281;BME280;49406;51.044;3.766;2023-11-18T05:01:16;102179.39;;;7.25;100.00
63281;BME280;49406;51.044;3.766;2023-11-18T05:03:51;102170.09;;;7.36;100.00
63281;BME280;49406;51.044;3.766;2023-11-18T05:06:26;102164.56;;;7.40;100.00
63281;BME280;49406;51.044;3.766;2023-11-18T05:09:00;102157.77;;;7.44;100.00
63281;BME280;49406;51.044;3.766;2023-11-18T05:11:35;102149.24;;;7.49;100.00
63281;BME280;49406;51.044;3.766;2023-11-18T05:14:10;102140.87;;;7.48;100.00
63281;BME280;49406;51.044;3.766;2023-11-18T05:16:44;102138.94;;;7.48;100.00
63281;BME280;49406;51.044;3.766;2023-11-18T05:19:19;102132.70;;;7.53;100.00
63281;BME280;49406;51.044;3.766;2023-11-18T05:21:53;102134.11;;;7.53;100.00
63281;BME280;49406;51.044;3.766;2023-11-18T05:24:28;102129.23;;;7.57;100.00
63281;BME280;49406;51.044;3.766;2023-11-18T05:27:03;102137.05;;;7.61;100.00
63281;BME280;49406;51.044;3.766;2023-11-18T05:29:38;102143.58;;;7.59;100.00
63281;BME280;49406;51.044;3.766;2023-11-18T05:32:14;102140.91;;;7.58;100.00
63281;BME280;49406;51.044;3.766;2023-11-18T05:34:50;102134.15;;;7.67;100.00
63281;BME280;49406;51.044;3.766;2023-11-18T05:37:27;102122.25;;;7.70;100.00
63281;BME280;49406;51.044;3.766;2023-11-18T05:40:03;102125.66;;;7.76;100.00
63281;BME280;49406;51.044;3.766;2023-11-18T05:42:40;102132.06;;;7.71;100.00
63281;BME280;49406;51.044;3.766;2023-11-18T05:45:15;102129.35;;;7.69;100.00
63281;BME280;49406;51.044;3.766;2023-11-18T05:48:01;102122.74;;;7.77;100.00
63281;BME280;49406;51.044;3.766;2023-11-18T05:50:36;102118.96;;;7.79;100.00
63281;BME280;49406;51.044;3.766;2023-11-18T05:53:11;102112.38;;;7.80;100.00
63281;BME280;49406;51.044;3.766;2023-11-18T05:55:45;102107.75;;;7.81;100.00
63281;BME280;49406;51.044;3.766;2023-11-18T05:58:20;102113.39;;;7.83;100.00
63281;BME280;49406;51.044;3.766;2023-11-18T06:00:54;102122.02;;;7.86;100.00
63281;BME280;49406;51.044;3.766;2023-11-18T06:03:29;102119.00;;;7.84;100.00
63281;BME280;49406;51.044;3.766;2023-11-18T06:06:04;102115.23;;;7.90;100.00
63281;BME280;49406;51.044;3.766;2023-11-18T06:08:40;102118.40;;;7.95;100.00
63281;BME280;49406;51.044;3.766;2023-11-18T06:11:15;102111.90;;;7.98;100.00
63281;BME280;49406;51.044;3.766;2023-11-18T06:13:53;102102.29;;;7.97;100.00
63281;BME280;49406;51.044;3.766;2023-11-18T06:16:27;102099.18;;;7.98;100.00
63281;BME280;49406;51.044;3.766;2023-11-18T06:19:02;102096.97;;;8.04;100.00
63281;BME280;49406;51.044;3.766;2023-11-18T06:21:36;102083.52;;;8.07;100.00
63281;BME280;49406;51.044;3.766;2023-11-18T06:24:11;102089.98;;;8.08;100.00
63281;BME280;49406;51.044;3.766;2023-11-18T06:26:47;102089.94;;;8.06;100.00
63281;BME280;49406;51.044;3.766;2023-11-18T06:29:23;102084.31;;;8.06;100.00
63281;BME280;49406;51.044;3.766;2023-11-18T06:31:57;102084.33;;;8.01;100.00
63281;BME280;49406;51.044;3.766;2023-11-18T06:34:32;102091.83;;;8.06;100.00
63281;BME280;49406;51.044;3.766;2023-11-18T06:37:07;102093.13;;;8.08;100.00
63281;BME280;49406;51.044;3.766;2023-11-18T06:39:44;102086.02;;;8.05;100.00
63281;BME280;49406;51.044;3.766;2023-11-18T06:42:20;102081.89;;;8.06;100.00
63281;BME280;49406;51.044;3.766;2023-11-18T06:44:56;102078.44;;;8.07;100.00
63281;BME280;49406;51.044;3.766;2023-11-18T06:47:31;102076.69;;;8.02;100.00
63281;BME280;49406;51.044;3.766;2023-11-18T06:50:08;102074.73;;;8.05;100.00
63281;BME280;49406;51.044;3.766;2023-11-18T06:52:44;102067.88;;;8.08;100.00
63281;BME280;49406;51.044;3.766;2023-11-18T06:55:19;102072.20;;;8.12;100.00
63281;BME280;49406;51.044;3.766;2023-11-18T06:57:54;102076.41;;;8.13;100.00
63281;BME280;49406;51.044;3.766;2023-11-18T07:00:29;102077.39;;;8.11;100.00
63281;BME280;49406;51.044;3.766;2023-11-18T07:03:04;102081.05;;;8.06;100.00
63281;BME280;49406;51.044;3.766;2023-11-18T07:05:39;102078.98;;;8.03;100.00
63281;BME280;49406;51.044;3.766;2023-11-18T07:08:13;102075.53;;;8.08;100.00
63281;BME280;49406;51.044;3.766;2023-11-18T07:10:48;102068.29;;;8.10;100.00
63281;BME280;49406;51.044;3.766;2023-11-18T07:13:23;102071.05;;;8.09;100.00
63281;BME280;49406;51.044;3.766;2023-11-18T07:15:57;102067.96;;;8.06;100.00
63281;BME280;49406;51.044;3.766;2023-11-18T07:18:32;102071.50;;;8.07;100.00
63281;BME280;49406;51.044;3.766;2023-11-18T07:21:07;102062.74;;;8.06;100.00
63281;BME280;49406;51.044;3.766;2023-11-18T07:23:42;102062.41;;;8.02;100.00
63281;BME280;49406;51.044;3.766;2023-11-18T07:26:17;102068.96;;;8.00;100.00
63281;BME280;49406;51.044;3.766;2023-11-18T07:28:52;102064.50;;;8.02;100.00
63281;BME280;49406;51.044;3.766;2023-11-18T07:31:26;102054.95;;;8.03;100.00
63281;BME280;49406;51.044;3.766;2023-11-18T07:34:02;102041.27;;;8.01;100.00
63281;BME280;49406;51.044;3.766;2023-11-18T07:36:37;102041.94;;;8.05;100.00
63281;BME280;49406;51.044;3.766;2023-11-18T07:39:11;102035.31;;;8.04;100.00
63281;BME280;49406;51.044;3.766;2023-11-18T07:41:49;102021.36;;;8.04;100.00
63281;BME280;49406;51.044;3.766;2023-11-18T07:44:23;102018.53;;;8.02;100.00
63281;BME280;49406;51.044;3.766;2023-11-18T07:46:58;102018.57;;;7.99;100.00
63281;BME280;49406;51.044;3.766;2023-11-18T07:49:33;102009.80;;;7.97;100.00
63281;BME280;49406;51.044;3.766;2023-11-18T07:52:08;102005.27;;;8.02;100.00
63281;BME280;49406;51.044;3.766;2023-11-18T07:54:43;101995.38;;;8.03;100.00
63281;BME280;49406;51.044;3.766;2023-11-18T07:57:18;101988.61;;;8.04;100.00
63281;BME280;49406;51.044;3.766;2023-11-18T07:59:54;101989.39;;;8.05;100.00
63281;BME280;49406;51.044;3.766;2023-11-18T08:02:29;101983.50;;;8.06;100.00
63281;BME280;49406;51.044;3.766;2023-11-18T08:05:04;101987.56;;;8.07;100.00
63281;BME280;49406;51.044;3.766;2023-11-18T08:07:40;101998.05;;;8.09;100.00
63281;BME280;49406;51.044;3.766;2023-11-18T08:10:17;101997.96;;;8.11;100.00
63281;BME280;49406;51.044;3.766;2023-11-18T08:12:52;102004.35;;;8.14;100.00
63281;BME280;49406;51.044;3.766;2023-11-18T08:15:27;102006.45;;;8.14;100.00
63281;BME280;49406;51.044;3.766;2023-11-18T08:18:02;102005.60;;;8.15;100.00
63281;BME280;49406;51.044;3.766;2023-11-18T08:20:38;101999.52;;;8.16;100.00
63281;BME280;49406;51.044;3.766;2023-11-18T08:23:12;102002.23;;;8.23;100.00
63281;BME280;49406;51.044;3.766;2023-11-18T08:25:47;101998.76;;;8.24;100.00
63281;BME280;49406;51.044;3.766;2023-11-18T08:28:24;101993.23;;;8.25;100.00
63281;BME280;49406;51.044;3.766;2023-11-18T08:30:59;101993.84;;;8.27;100.00
63281;BME280;49406;51.044;3.766;2023-11-18T08:33:34;101996.19;;;8.30;100.00
63281;BME280;49406;51.044;3.766;2023-11-18T08:36:10;101988.07;;;8.31;100.00
63281;BME280;49406;51.044;3.766;2023-11-18T08:38:45;101985.52;;;8.33;100.00
63281;BME280;49406;51.044;3.766;2023-11-18T08:41:20;101990.84;;;8.40;100.00
63281;BME280;49406;51.044;3.766;2023-11-18T08:43:55;101984.37;;;8.44;100.00
63281;BME280;49406;51.044;3.766;2023-11-18T08:46:30;101979.72;;;8.46;100.00
63281;BME280;49406;51.044;3.766;2023-11-18T08:49:05;101976.80;;;8.47;100.00
63281;BME280;49406;51.044;3.766;2023-11-18T08:51:44;101970.40;;;8.49;100.00
63281;BME280;49406;51.044;3.766;2023-11-18T08:54:20;101962.66;;;8.46;100.00
63281;BME280;49406;51.044;3.766;2023-11-18T08:56:58;101962.62;;;8.50;100.00
63281;BME280;49406;51.044;3.766;2023-11-18T08:59:33;101950.77;;;8.50;100.00
63281;BME280;49406;51.044;3.766;2023-11-18T09:02:07;101935.47;;;8.52;100.00
63281;BME280;49406;51.044;3.766;2023-11-18T09:04:48;101917.29;;;8.55;100.00
63281;BME280;49406;51.044;3.766;2023-11-18T09:07:22;101900.61;;;8.56;100.00
63281;BME280;49406;51.044;3.766;2023-11-18T09:09:57;101901.59;;;8.59;100.00
63281;BME280;49406;51.044;3.766;2023-11-18T09:12:32;101902.70;;;8.62;100.00
63281;BME280;49406;51.044;3.766;2023-11-18T09:15:08;101911.75;;;8.66;100.00
63281;BME280;49406;51.044;3.766;2023-11-18T09:17:47;101915.07;;;8.67;100.00
63281;BME280;49406;51.044;3.766;2023-11-18T09:20:22;101911.46;;;8.68;100.00
63281;BME280;49406;51.044;3.766;2023-11-18T09:22:57;101914.09;;;8.69;100.00
63281;BME280;49406;51.044;3.766;2023-11-18T09:25:32;101906.09;;;8.69;100.00
63281;BME280;49406;51.044;3.766;2023-11-18T09:28:07;101896.88;;;8.71;100.00
63281;BME280;49406;51.044;3.766;2023-11-18T09:30:48;101895.91;;;8.73;100.00
63281;BME280;49406;51.044;3.766;2023-11-18T09:33:28;101892.13;;;8.74;100.00
63281;BME280;49406;51.044;3.766;2023-11-18T09:36:09;101872.50;;;8.77;100.00
63281;BME280;49406;51.044;3.766;2023-11-18T09:38:46;101859.86;;;8.74;100.00
63281;BME280;49406;51.044;3.766;2023-11-18T09:41:23;101853.16;;;8.72;100.00
63281;BME280;49406;51.044;3.766;2023-11-18T09:44:00;101838.73;;;8.73;100.00
63281;BME280;49406;51.044;3.766;2023-11-18T09:46:38;101836.61;;;8.78;100.00
63281;BME280;49406;51.044;3.766;2023-11-18T09:49:25;101827.91;;;8.78;100.00
63281;BME280;49406;51.044;3.766;2023-11-18T09:52:08;101822.02;;;8.80;100.00
63281;BME280;49406;51.044;3.766;2023-11-18T09:54:53;101819.11;;;8.81;100.00
63281;BME280;49406;51.044;3.766;2023-11-18T09:57:34;101821.77;;;8.83;100.00
63281;BME280;49406;51.044;3.766;2023-11-18T10:00:16;101814.98;;;8.83;100.00
63281;BME280;49406;51.044;3.766;2023-11-18T10:02:59;101815.18;;;8.84;100.00
63281;BME280;49406;51.044;3.766;2023-11-18T10:05:36;101810.82;;;8.84;100.00
63281;BME280;49406;51.044;3.766;2023-11-18T10:08:12;101801.77;;;8.85;100.00
63281;BME280;49406;51.044;3.766;2023-11-18T10:10:49;101792.41;;;8.87;100.00
63281;BME280;49406;51.044;3.766;2023-11-18T10:13:25;101788.80;;;8.88;100.00
63281;BME280;49406;51.044;3.766;2023-11-18T10:15:59;101785.40;;;8.91;100.00
63281;BME280;49406;51.044;3.766;2023-11-18T10:18:34;101790.65;;;8.92;100.00
63281;BME280;49406;51.044;3.766;2023-11-18T10:21:10;101790.69;;;8.92;100.00
63281;BME280;49406;51.044;3.766;2023-11-18T10:24:03;101791.20;;;8.92;100.00
63281;BME280;49406;51.044;3.766;2023-11-18T10:26:45;101789.52;;;8.94;100.00
63281;BME280;49406;51.044;3.766;2023-11-18T10:29:21;101778.75;;;8.95;100.00
63281;BME280;49406;51.044;3.766;2023-11-18T10:32:06;101781.23;;;8.97;100.00
63281;BME280;49406;51.044;3.766;2023-11-18T10:34:43;101779.62;;;8.96;100.00
63281;BME280;49406;51.044;3.766;2023-11-18T10:37:19;101776.54;;;8.98;100.00
63281;BME280;49406;51.044;3.766;2023-11-18T10:39:56;101773.98;;;9.00;100.00
63281;BME280;49406;51.044;3.766;2023-11-18T10:42:31;101766.19;;;9.02;100.00
63281;BME280;49406;51.044;3.766;2023-11-18T10:45:07;101758.25;;;9.05;100.00
63281;BME280;49406;51.044;3.766;2023-11-18T10:47:46;101751.89;;;9.08;100.00
63281;BME280;49406;51.044;3.766;2023-11-18T10:50:21;101755.60;;;9.09;100.00
63281;BME280;49406;51.044;3.766;2023-11-18T10:52:55;101749.73;;;9.11;100.00
63281;BME280;49406;51.044;3.766;2023-11-18T10:55:37;101738.57;;;9.11;100.00
63281;BME280;49406;51.044;3.766;2023-11-18T10:58:13;101722.95;;;9.15;100.00
63281;BME280;49406;51.044;3.766;2023-11-18T11:00:52;101715.30;;;9.16;100.00
63281;BME280;49406;51.044;3.766;2023-11-18T11:03:33;101701.11;;;9.20;100.00
63281;BME280;49406;51.044;3.766;2023-11-18T11:06:18;101708.52;;;9.23;100.00
63281;BME280;49406;51.044;3.766;2023-11-18T11:08:57;101710.52;;;9.26;100.00
63281;BME280;49406;51.044;3.766;2023-11-18T11:11:39;101698.82;;;9.25;100.00
63281;BME280;49406;51.044;3.766;2023-11-18T11:14:16;101671.20;;;9.23;100.00
63281;BME280;49406;51.044;3.766;2023-11-18T11:16:54;101664.80;;;9.25;100.00
63281;BME280;49406;51.044;3.766;2023-11-18T11:19:34;101653.83;;;9.26;100.00
63281;BME280;49406;51.044;3.766;2023-11-18T11:22:24;101636.75;;;9.27;100.00
63281;BME280;49406;51.044;3.766;2023-11-18T11:25:06;101628.59;;;9.29;100.00
63281;BME280;49406;51.044;3.766;2023-11-18T11:27:50;101628.80;;;9.29;100.00
63281;BME280;49406;51.044;3.766;2023-11-18T11:30:29;101620.05;;;9.29;100.00
63281;BME280;49406;51.044;3.766;2023-11-18T11:33:17;101606.41;;;9.28;100.00
63281;BME280;49406;51.044;3.766;2023-11-18T11:35:56;101592.00;;;9.30;100.00
63281;BME280;49406;51.044;3.766;2023-11-18T11:38:30;101593.96;;;9.32;100.00
63281;BME280;49406;51.044;3.766;2023-11-18T11:41:07;101583.71;;;9.34;100.00
63281;BME280;49406;51.044;3.766;2023-11-18T11:43:42;101581.84;;;9.37;100.00
63281;BME280;49406;51.044;3.766;2023-11-18T11:46:17;101581.38;;;9.39;100.00
63281;BME280;49406;51.044;3.766;2023-11-18T11:48:56;101569.39;;;9.41;100.00
63281;BME280;49406;51.044;3.766;2023-11-18T11:51:37;101566.61;;;9.42;100.00
63281;BME280;49406;51.044;3.766;2023-11-18T11:54:19;101561.63;;;9.45;100.00
63281;BME280;49406;51.044;3.766;2023-11-18T11:56:57;101559.03;;;9.46;100.00
63281;BME280;49406;51.044;3.766;2023-11-18T11:59:57;101564.14;;;9.47;100.00
63281;BME280;49406;51.044;3.766;2023-11-18T12:02:34;101555.80;;;9.49;100.00
63281;BME280;49406;51.044;3.766;2023-11-18T12:05:09;101550.23;;;9.51;100.00
63281;BME280;49406;51.044;3.766;2023-11-18T12:07:53;101542.41;;;9.52;100.00
63281;BME280;49406;51.044;3.766;2023-11-18T12:10:31;101532.73;;;9.56;100.00
63281;BME280;49406;51.044;3.766;2023-11-18T12:13:12;101524.44;;;9.59;100.00
63281;BME280;49406;51.044;3.766;2023-11-18T12:15:53;101511.60;;;9.62;100.00
63281;BME280;49406;51.044;3.766;2023-11-18T12:18:31;101515.33;;;9.65;100.00
63281;BME280;49406;51.044;3.766;2023-11-18T12:21:07;101515.36;;;9.67;100.00
63281;BME280;49406;51.044;3.766;2023-11-18T12:24:16;101500.02;;;9.68;100.00
63281;BME280;49406;51.044;3.766;2023-11-18T12:26:52;101492.16;;;9.68;100.00
63281;BME280;49406;51.044;3.766;2023-11-18T12:29:33;101498.66;;;9.70;100.00
63281;BME280;49406;51.044;3.766;2023-11-18T12:32:09;101503.46;;;9.74;100.00
63281;BME280;49406;51.044;3.766;2023-11-18T12:34:52;101484.44;;;9.74;100.00
63281;BME280;49406;51.044;3.766;2023-11-18T12:40:45;101451.00;;;9.77;100.00
63281;BME280;49406;51.044;3.766;2023-11-18T12:43:46;101454.54;;;9.80;100.00
63281;BME280;49406;51.044;3.766;2023-11-18T12:46:45;101455.91;;;9.79;100.00
63281;BME280;49406;51.044;3.766;2023-11-18T12:49:21;101453.88;;;9.82;100.00
63281;BME280;49406;51.044;3.766;2023-11-18T12:51:58;101444.86;;;9.85;100.00
63281;BME280;49406;51.044;3.766;2023-11-18T12:54:34;101439.66;;;9.87;100.00
63281;BME280;49406;51.044;3.766;2023-11-18T12:57:10;101434.11;;;9.89;100.00
63281;BME280;49406;51.044;3.766;2023-11-18T12:59:47;101440.98;;;9.91;100.00
63281;BME280;49406;51.044;3.766;2023-11-18T13:02:23;101424.73;;;9.91;100.00
63281;BME280;49406;51.044;3.766;2023-11-18T13:04:58;101414.84;;;9.94;100.00
63281;BME280;49406;51.044;3.766;2023-11-18T13:07:32;101406.34;;;9.97;100.00
63281;BME280;49406;51.044;3.766;2023-11-18T13:10:10;101409.70;;;10.00;100.00
63281;BME280;49406;51.044;3.766;2023-11-18T13:12:48;101403.10;;;10.02;100.00
63281;BME280;49406;51.044;3.766;2023-11-18T13:15:25;101398.06;;;10.04;100.00
63281;BME280;49406;51.044;3.766;2023-11-18T13:18:02;101391.06;;;10.02;100.00
63281;BME280;49406;51.044;3.766;2023-11-18T13:20:39;101400.54;;;10.05;100.00
63281;BME280;49406;51.044;3.766;2023-11-18T13:23:19;101388.98;;;10.04;100.00
63281;BME280;49406;51.044;3.766;2023-11-18T13:25:56;101392.16;;;10.06;100.00
63281;BME280;49406;51.044;3.766;2023-11-18T13:28:33;101385.73;;;10.07;100.00
63281;BME280;49406;51.044;3.766;2023-11-18T13:31:09;101375.31;;;10.10;100.00
63281;BME280;49406;51.044;3.766;2023-11-18T13:33:46;101372.23;;;10.12;100.00
63281;BME280;49406;51.044;3.766;2023-11-18T13:36:22;101374.69;;;10.14;100.00
63281;BME280;49406;51.044;3.766;2023-11-18T13:38:58;101362.69;;;10.17;100.00
63281;BME280;49406;51.044;3.766;2023-11-18T13:41:33;101379.85;;;10.19;100.00
63281;BME280;49406;51.044;3.766;2023-11-18T13:44:09;101375.86;;;10.20;100.00